Time;durP1;ratioP1;P1;durP2;ratioP2;P2;SDS_P1;SDS_P2;PMS_P1;PMS_P2;Temp;Humidity;BMP_temperature;BMP_pressure;BME280_temperature;BME280_humidity;BME280_pressure;Samples;Min_cycle;Max_cycle;Signal;HPM_P1;HPM_P2
2022/09/07 00:01:59;;;;;;;25.35;20.27;;;18.30;99.90;;;;;;5067359;28;20036;-82
2022/09/07 00:04:25;;;;;;;20.23;17.58;;;18.30;99.90;;;;;;5083038;28;20020;-82
2022/09/07 00:06:50;;;;;;;21.50;18.50;;;18.20;99.90;;;;;;5076616;28;20305;-83
2022/09/07 00:09:16;;;;;;;23.90;20.77;;;18.20;99.90;;;;;;5078053;28;20840;-84
2022/09/07 00:11:42;;;;;;;27.25;20.55;;;18.20;99.90;;;;;;5069784;28;20385;-82
2022/09/07 00:14:08;;;;;;;25.90;19.88;;;18.20;99.90;;;;;;5072927;28;20027;-82
2022/09/07 00:16:33;;;;;;;24.55;20.65;;;18.20;99.90;;;;;;5076157;28;20032;-83
2022/09/07 00:19:02;;;;;;;23.92;20.30;;;18.20;99.90;;;;;;5080665;28;20724;-82
2022/09/07 00:21:28;;;;;;;23.35;19.92;;;18.20;99.90;;;;;;5070956;28;20016;-86
2022/09/07 00:23:54;;;;;;;26.50;21.65;;;18.10;99.90;;;;;;5055526;28;20025;-83
2022/09/07 00:26:26;;;;;;;29.25;21.92;;;18.10;99.90;;;;;;5066606;28;20055;-83
2022/09/07 00:28:55;;;;;;;25.70;20.55;;;18.10;99.90;;;;;;5068292;28;20025;-83
2022/09/07 00:31:22;;;;;;;26.55;21.92;;;18.10;99.90;;;;;;5072895;28;20055;-83
2022/09/07 00:33:48;;;;;;;23.73;19.95;;;18.10;99.90;;;;;;5075029;28;20024;-82
2022/09/07 00:36:15;;;;;;;29.98;20.73;;;18.10;99.90;;;;;;5066549;28;20062;-84
2022/09/07 00:38:41;;;;;;;26.08;21.15;;;18.00;99.90;;;;;;5068319;28;20028;-82
2022/09/07 00:41:07;;;;;;;26.15;21.05;;;18.00;99.90;;;;;;5073199;28;20477;-86
2022/09/07 00:43:36;;;;;;;20.85;18.08;;;18.00;99.90;;;;;;5075262;28;20058;-82
2022/09/07 00:46:04;;;;;;;25.50;20.05;;;18.00;99.90;;;;;;5073917;28;20033;-84
2022/09/07 00:49:11;;;;;;;24.75;19.45;;;18.00;99.90;;;;;;5075791;28;20073;-84
2022/09/07 00:51:45;;;;;;;22.60;18.85;;;17.90;99.90;;;;;;5031572;28;20078;-84
2022/09/07 00:54:16;;;;;;;25.73;20.58;;;17.90;99.90;;;;;;5069877;28;20041;-82
2022/09/07 00:56:43;;;;;;;24.98;19.20;;;17.90;99.90;;;;;;5062954;28;20053;-82
2022/09/07 00:59:12;;;;;;;21.42;19.23;;;17.90;99.90;;;;;;5069650;28;20436;-82
2022/09/07 01:01:38;;;;;;;25.23;19.80;;;17.80;99.90;;;;;;5068773;28;20028;-82
2022/09/07 01:04:04;;;;;;;25.98;21.10;;;17.80;99.90;;;;;;5073090;28;20670;-82
2022/09/07 01:06:34;;;;;;;25.33;20.15;;;17.80;99.90;;;;;;5078389;28;20028;-83
2022/09/07 01:09:09;;;;;;;24.05;21.25;;;17.80;99.90;;;;;;5065535;28;20020;-84
2022/09/07 01:11:34;;;;;;;24.77;19.58;;;17.80;99.90;;;;;;5069870;28;20044;-82
2022/09/07 01:14:02;;;;;;;25.02;19.98;;;17.80;99.90;;;;;;5074397;28;20435;-85
2022/09/07 01:16:37;;;;;;;24.60;20.35;;;17.80;99.90;;;;;;5067464;28;20029;-81
2022/09/07 01:19:25;;;;;;;26.55;21.92;;;17.80;99.90;;;;;;5076084;28;20031;-85
2022/09/07 01:22:17;;;;;;;22.98;20.15;;;17.80;99.90;;;;;;5070894;28;20016;-81
2022/09/07 01:25:08;;;;;;;31.25;23.02;;;17.70;99.90;;;;;;5062910;28;20028;-83
2022/09/07 01:27:52;;;;;;;27.25;22.08;;;17.70;99.90;;;;;;5058776;28;20054;-85
2022/09/07 01:30:19;;;;;;;22.33;19.88;;;17.70;99.90;;;;;;5069843;28;20037;-84
2022/09/07 01:33:03;;;;;;;28.42;21.63;;;17.70;99.90;;;;;;5065882;28;20032;-82
2022/09/07 01:36:01;;;;;;;24.38;20.55;;;17.70;99.90;;;;;;5059115;28;20381;-82
2022/09/07 01:38:44;;;;;;;24.77;19.45;;;17.70;99.90;;;;;;5061802;28;20025;-83
2022/09/07 01:41:43;;;;;;;23.35;19.83;;;17.70;99.90;;;;;;5081622;28;20028;-86
2022/09/07 01:44:18;;;;;;;28.15;21.13;;;17.70;99.90;;;;;;5070331;28;20619;-86
2022/09/07 01:47:05;;;;;;;25.02;18.88;;;17.70;99.90;;;;;;5073559;28;20035;-83
2022/09/07 01:49:38;;;;;;;26.30;21.65;;;17.60;99.90;;;;;;5070975;28;20104;-82
2022/09/07 01:52:10;;;;;;;23.52;19.85;;;17.60;99.90;;;;;;5067881;28;20024;-82
2022/09/07 01:54:50;;;;;;;25.30;20.85;;;17.60;99.90;;;;;;5089465;28;20576;-82
2022/09/07 01:57:24;;;;;;;24.48;20.27;;;17.60;99.90;;;;;;5076974;28;20035;-82
2022/09/07 01:59:54;;;;;;;22.90;19.77;;;17.60;99.90;;;;;;5075895;28;20024;-83
2022/09/07 02:02:26;;;;;;;26.70;20.05;;;17.60;99.90;;;;;;5068606;28;20085;-82
2022/09/07 02:05:07;;;;;;;25.33;20.45;;;17.60;99.90;;;;;;5070104;28;20028;-83
2022/09/07 02:07:42;;;;;;;24.80;20.58;;;17.60;99.90;;;;;;5069859;28;20032;-83
2022/09/07 02:10:21;;;;;;;22.02;18.70;;;17.50;99.90;;;;;;5073699;28;20119;-82
2022/09/07 02:13:02;;;;;;;24.17;18.80;;;17.60;99.90;;;;;;5059637;28;20047;-80
2022/09/07 02:15:40;;;;;;;21.25;18.00;;;17.50;99.90;;;;;;5066850;28;20052;-82
2022/09/07 02:18:07;;;;;;;25.95;21.42;;;17.50;99.90;;;;;;5070284;28;20032;-81
2022/09/07 02:20:38;;;;;;;24.65;21.50;;;17.50;99.90;;;;;;5068243;28;20062;-85
2022/09/07 02:23:18;;;;;;;26.00;20.25;;;17.50;99.90;;;;;;5062831;28;20124;-82
2022/09/07 02:25:50;;;;;;;26.48;20.35;;;17.50;99.90;;;;;;5060051;28;20033;-87
2022/09/07 02:28:22;;;;;;;17.08;13.93;;;17.50;99.90;;;;;;5066357;28;20068;-85
2022/09/07 02:30:47;;;;;;;23.88;19.92;;;17.50;99.90;;;;;;5070837;28;20039;-86
2022/09/07 02:33:13;;;;;;;26.40;21.10;;;17.50;99.90;;;;;;5065592;28;20217;-83
2022/09/07 02:35:39;;;;;;;24.67;20.27;;;17.50;99.90;;;;;;5068648;28;20094;-83
2022/09/07 02:38:06;;;;;;;24.02;20.02;;;17.50;99.90;;;;;;5070581;28;20353;-83
2022/09/07 02:40:32;;;;;;;27.17;21.23;;;17.50;99.90;;;;;;5071436;28;20096;-82
2022/09/07 02:43:00;;;;;;;26.60;21.77;;;17.50;99.90;;;;;;5067029;28;20140;-83
2022/09/07 02:45:32;;;;;;;23.83;19.05;;;17.50;99.90;;;;;;5059113;28;20118;-83
2022/09/07 02:48:21;;;;;;;26.05;20.85;;;17.50;99.90;;;;;;5064548;28;20029;-83
2022/09/07 02:51:10;;;;;;;27.58;20.77;;;17.50;99.90;;;;;;5059208;28;20064;-83
2022/09/07 02:53:51;;;;;;;23.77;19.80;;;17.50;99.90;;;;;;5065647;28;20043;-83
2022/09/07 02:56:37;;;;;;;25.63;20.25;;;17.50;99.90;;;;;;5062222;28;20040;-87
2022/09/07 02:59:14;;;;;;;26.05;20.52;;;17.50;99.90;;;;;;5059138;28;20044;-82
2022/09/07 03:01:59;;;;;;;23.63;19.42;;;17.50;99.90;;;;;;5068737;28;20033;-83
2022/09/07 03:04:44;;;;;;;24.67;19.52;;;17.50;99.90;;;;;;5065067;28;20032;-84
2022/09/07 03:07:14;;;;;;;25.92;19.98;;;17.60;99.90;;;;;;5069790;28;20020;-81
2022/09/07 03:09:44;;;;;;;23.45;20.13;;;17.60;99.90;;;;;;5069567;28;20037;-83
2022/09/07 03:12:10;;;;;;;27.42;19.65;;;17.60;99.90;;;;;;5071496;28;20472;-82
2022/09/07 03:14:39;;;;;;;22.35;19.55;;;17.60;99.90;;;;;;5068610;28;20035;-85
2022/09/07 03:17:04;;;;;;;24.02;20.75;;;17.60;99.90;;;;;;5066658;28;20079;-83
2022/09/07 03:19:30;;;;;;;25.80;20.38;;;17.70;99.90;;;;;;5070292;28;20819;-83
2022/09/07 03:21:55;;;;;;;23.55;19.45;;;17.70;99.90;;;;;;5055169;28;20025;-86
2022/09/07 03:24:21;;;;;;;22.83;18.40;;;17.70;99.90;;;;;;5064585;28;20032;-84
2022/09/07 03:26:47;;;;;;;21.70;18.48;;;17.80;99.90;;;;;;5071454;28;20024;-84
2022/09/07 03:29:13;;;;;;;20.65;18.23;;;17.80;99.90;;;;;;5073592;28;20465;-83
2022/09/07 03:31:39;;;;;;;26.85;20.15;;;17.80;99.90;;;;;;5057348;28;20029;-84
2022/09/07 03:34:06;;;;;;;23.17;17.67;;;17.80;99.90;;;;;;5073908;28;20035;-80
2022/09/07 03:36:32;;;;;;;22.70;19.15;;;17.80;99.90;;;;;;5075943;28;20099;-82
2022/09/07 03:38:58;;;;;;;25.40;19.88;;;17.80;99.90;;;;;;5073285;28;20116;-80
2022/09/07 03:41:25;;;;;;;26.70;21.33;;;17.90;99.90;;;;;;5068899;28;20048;-80
2022/09/07 03:43:51;;;;;;;27.70;21.17;;;17.90;99.90;;;;;;5069338;28;20052;-82
2022/09/07 03:46:19;;;;;;;25.60;21.35;;;17.90;99.90;;;;;;5089264;28;20103;-82
2022/09/07 03:48:46;;;;;;;26.77;20.45;;;17.90;99.90;;;;;;5067371;28;20561;-83
2022/09/07 03:51:13;;;;;;;25.00;21.27;;;17.90;99.90;;;;;;5067862;28;20033;-82
2022/09/07 03:53:41;;;;;;;26.08;21.40;;;17.90;99.90;;;;;;5069308;28;20036;-85
2022/09/07 03:56:13;;;;;;;23.58;18.55;;;18.00;99.90;;;;;;5065242;28;20037;-84
2022/09/07 03:58:38;;;;;;;25.00;20.45;;;18.00;99.90;;;;;;5057563;28;20024;-82
2022/09/07 04:01:06;;;;;;;24.20;20.15;;;18.00;99.90;;;;;;5065046;28;20032;-82
2022/09/07 04:03:31;;;;;;;23.30;20.45;;;18.00;99.90;;;;;;5064547;28;20032;-82
2022/09/07 04:05:58;;;;;;;23.55;20.42;;;18.10;99.90;;;;;;5066454;28;20020;-81
2022/09/07 04:08:25;;;;;;;26.83;22.35;;;18.00;99.90;;;;;;5069213;28;20107;-87
2022/09/07 04:10:51;;;;;;;24.95;21.30;;;18.10;99.90;;;;;;5057088;28;20021;-84
2022/09/07 04:13:16;;;;;;;23.10;19.60;;;18.00;99.90;;;;;;5068113;28;20505;-84
2022/09/07 04:15:42;;;;;;;25.42;20.45;;;18.00;99.90;;;;;;5054432;28;20051;-84
2022/09/07 04:18:07;;;;;;;22.40;19.88;;;18.00;99.90;;;;;;5054833;28;20047;-83
2022/09/07 04:20:33;;;;;;;26.48;21.08;;;18.10;99.90;;;;;;5057719;28;20047;-81
2022/09/07 04:22:58;;;;;;;26.35;20.85;;;18.10;99.90;;;;;;5054849;28;20036;-82
2022/09/07 04:25:24;;;;;;;25.00;20.27;;;18.10;99.90;;;;;;5053826;28;20028;-82
2022/09/07 04:27:49;;;;;;;23.50;20.63;;;18.10;99.90;;;;;;5056827;28;20029;-81
2022/09/07 04:30:15;;;;;;;23.40;19.92;;;18.10;99.90;;;;;;5056266;28;20090;-82
2022/09/07 04:32:40;;;;;;;29.85;22.17;;;18.20;99.90;;;;;;5058953;28;20037;-83
2022/09/07 04:35:06;;;;;;;24.35;20.10;;;18.20;99.90;;;;;;5067660;28;20065;-82
2022/09/07 04:37:32;;;;;;;28.75;21.92;;;18.20;99.90;;;;;;5070822;28;20044;-83
2022/09/07 04:39:57;;;;;;;25.50;21.70;;;18.20;99.90;;;;;;5060126;28;20500;-82
2022/09/07 04:42:23;;;;;;;23.25;17.80;;;18.20;99.90;;;;;;5070356;28;20062;-81
2022/09/07 04:44:49;;;;;;;23.15;19.77;;;18.20;99.90;;;;;;5067328;28;20099;-82
2022/09/07 04:47:14;;;;;;;23.92;19.88;;;18.30;99.90;;;;;;5066476;28;20098;-82
2022/09/07 04:49:40;;;;;;;25.17;19.50;;;18.30;99.90;;;;;;5068967;28;20034;-84
2022/09/07 04:52:05;;;;;;;23.42;19.13;;;18.30;99.90;;;;;;5069177;28;20024;-84
2022/09/07 04:54:31;;;;;;;27.77;19.85;;;18.30;99.90;;;;;;5068580;28;20103;-82
2022/09/07 04:56:56;;;;;;;22.42;18.98;;;18.30;99.90;;;;;;5068823;28;20033;-86
2022/09/07 04:59:22;;;;;;;27.83;21.63;;;18.40;99.90;;;;;;5074038;28;20066;-82
2022/09/07 05:01:47;;;;;;;25.23;19.85;;;18.40;99.90;;;;;;5070485;28;20032;-83
2022/09/07 05:04:14;;;;;;;27.38;20.08;;;18.40;99.90;;;;;;5060443;28;20040;-84
2022/09/07 05:06:39;;;;;;;22.48;19.15;;;18.30;99.90;;;;;;5075087;28;20055;-83
2022/09/07 05:09:05;;;;;;;26.95;20.05;;;18.40;99.90;;;;;;5071208;28;20100;-81
2022/09/07 05:11:30;;;;;;;30.05;19.05;;;18.30;99.90;;;;;;5067987;28;20024;-82
2022/09/07 05:14:01;;;;;;;31.17;21.73;;;18.30;99.90;;;;;;5067531;28;20078;-82
2022/09/07 05:16:28;;;;;;;35.92;20.92;;;18.40;99.90;;;;;;5067520;28;20127;-82
2022/09/07 05:18:56;;;;;;;27.30;20.25;;;18.40;99.90;;;;;;5068957;28;20615;-83
2022/09/07 05:21:24;;;;;;;23.58;19.60;;;18.40;99.90;;;;;;5074320;28;20028;-84
2022/09/07 05:23:52;;;;;;;27.17;20.02;;;18.40;99.90;;;;;;5068939;28;20048;-82
2022/09/07 05:26:18;;;;;;;25.23;18.20;;;18.50;99.90;;;;;;5071526;28;20044;-82
2022/09/07 05:28:44;;;;;;;21.67;17.48;;;18.50;99.90;;;;;;5076668;28;20013;-82
2022/09/07 05:31:13;;;;;;;29.23;16.75;;;18.50;99.90;;;;;;5093408;28;20040;-81
2022/09/07 05:33:38;;;;;;;30.73;18.58;;;18.50;99.90;;;;;;5090939;28;20054;-84
2022/09/07 05:36:05;;;;;;;19.58;17.48;;;18.50;99.90;;;;;;5071270;28;20028;-81
2022/09/07 05:38:34;;;;;;;21.58;17.90;;;18.50;99.90;;;;;;5074096;28;20036;-81
2022/09/07 05:41:00;;;;;;;22.65;18.20;;;18.60;99.90;;;;;;5072345;28;20032;-82
2022/09/07 05:43:26;;;;;;;22.45;18.05;;;18.60;99.90;;;;;;5069852;28;20024;-81
2022/09/07 05:45:55;;;;;;;19.20;17.05;;;18.60;99.90;;;;;;5069369;28;20032;-82
2022/09/07 05:48:20;;;;;;;22.08;17.10;;;18.60;99.90;;;;;;5065204;28;20036;-83
2022/09/07 05:50:51;;;;;;;23.42;18.35;;;18.60;99.90;;;;;;5070482;28;20040;-82
2022/09/07 05:53:18;;;;;;;20.30;16.17;;;18.70;99.90;;;;;;5071589;28;20484;-83
2022/09/07 05:55:44;;;;;;;18.25;15.15;;;18.70;99.90;;;;;;5070131;28;20038;-83
2022/09/07 05:58:09;;;;;;;23.92;16.45;;;18.80;99.90;;;;;;5070424;28;20021;-84
2022/09/07 06:00:35;;;;;;;17.95;15.65;;;18.80;99.90;;;;;;5069115;28;20346;-81
2022/09/07 06:03:00;;;;;;;17.77;15.20;;;18.90;99.90;;;;;;5070860;28;20111;-83
2022/09/07 06:05:26;;;;;;;20.75;16.25;;;19.00;99.90;;;;;;5070883;28;20033;-82
2022/09/07 06:07:52;;;;;;;19.15;16.17;;;19.00;99.90;;;;;;5070947;28;20052;-82
2022/09/07 06:10:17;;;;;;;24.17;16.52;;;19.10;99.90;;;;;;5081689;28;20027;-82
2022/09/07 06:12:46;;;;;;;25.88;15.77;;;19.10;99.90;;;;;;5078948;28;20029;-82
2022/09/07 06:15:12;;;;;;;15.48;13.77;;;19.20;99.90;;;;;;5070307;28;20028;-82
2022/09/07 06:17:38;;;;;;;16.30;14.30;;;19.30;99.90;;;;;;5066975;28;20115;-82
2022/09/07 06:20:05;;;;;;;15.98;13.93;;;19.40;99.90;;;;;;5070905;28;20076;-81
2022/09/07 06:22:30;;;;;;;14.43;12.93;;;19.50;99.90;;;;;;5069416;28;20546;-83
2022/09/07 06:24:56;;;;;;;19.17;13.98;;;19.60;99.90;;;;;;5085078;28;20036;-84
2022/09/07 06:27:22;;;;;;;15.98;13.23;;;19.70;99.90;;;;;;5087001;28;20594;-83
2022/09/07 06:29:47;;;;;;;15.27;13.68;;;19.80;99.90;;;;;;5067050;28;20055;-83
2022/09/07 06:32:13;;;;;;;12.95;11.55;;;19.90;99.90;;;;;;5068919;28;20059;-84
2022/09/07 06:34:38;;;;;;;14.50;12.43;;;20.00;99.90;;;;;;5069767;28;20032;-83
2022/09/07 06:37:04;;;;;;;14.35;12.85;;;20.10;99.90;;;;;;5069805;28;20085;-83
2022/09/07 06:39:29;;;;;;;14.50;11.77;;;20.20;99.90;;;;;;5071074;28;20052;-83
2022/09/07 06:41:55;;;;;;;13.10;11.40;;;20.10;99.90;;;;;;5070574;28;20036;-83
2022/09/07 06:44:20;;;;;;;14.43;10.80;;;20.20;99.90;;;;;;5070731;28;20111;-83
2022/09/07 06:46:46;;;;;;;13.30;10.93;;;20.20;99.90;;;;;;5070227;28;20106;-83
2022/09/07 06:49:11;;;;;;;14.80;11.30;;;20.30;99.90;;;;;;5069541;28;20017;-82
2022/09/07 06:51:37;;;;;;;12.23;10.45;;;20.40;99.90;;;;;;5068693;28;20462;-83
2022/09/07 06:54:04;;;;;;;12.68;10.68;;;20.50;99.90;;;;;;5070623;28;20427;-83
2022/09/07 06:56:30;;;;;;;12.70;9.35;;;20.60;99.90;;;;;;5070169;28;20029;-83
2022/09/07 06:58:58;;;;;;;11.00;9.18;;;20.70;99.90;;;;;;5071553;28;20078;-83
2022/09/07 07:01:24;;;;;;;12.02;9.55;;;20.80;99.90;;;;;;5069604;28;20023;-84
2022/09/07 07:03:52;;;;;;;12.48;9.05;;;21.00;99.90;;;;;;5069968;28;20041;-83
2022/09/07 07:06:18;;;;;;;10.00;8.98;;;21.10;99.90;;;;;;5070114;28;20082;-83
2022/09/07 07:08:44;;;;;;;9.88;8.68;;;21.20;99.90;;;;;;5069414;28;20051;-83
2022/09/07 07:11:11;;;;;;;11.70;8.63;;;21.40;99.90;;;;;;5066613;28;20473;-83
2022/09/07 07:13:38;;;;;;;10.73;8.32;;;21.50;99.90;;;;;;5071384;28;20055;-82
2022/09/07 07:16:12;;;;;;;7.85;7.05;;;21.60;99.90;;;;;;5073098;28;20032;-82
2022/09/07 07:18:39;;;;;;;9.07;8.18;;;21.80;99.80;;;;;;5072340;28;20038;-83
2022/09/07 07:21:06;;;;;;;8.98;8.02;;;21.90;99.80;;;;;;5071362;28;20020;-83
2022/09/07 07:23:33;;;;;;;8.13;7.20;;;22.00;99.90;;;;;;5071416;28;20033;-83
2022/09/07 07:26:22;;;;;;;11.00;7.32;;;22.00;99.70;;;;;;5070236;28;20027;-82
2022/09/07 07:28:50;;;;;;;8.50;7.22;;;22.10;99.60;;;;;;5070996;28;20020;-85
2022/09/07 07:31:18;;;;;;;8.50;7.20;;;22.30;99.30;;;;;;5071739;28;20961;-83
2022/09/07 07:33:46;;;;;;;9.15;6.13;;;22.40;99.00;;;;;;5073195;28;20075;-83
2022/09/07 07:36:24;;;;;;;6.85;5.97;;;22.60;99.10;;;;;;5071089;28;20477;-83
2022/09/07 07:38:52;;;;;;;8.05;6.63;;;22.70;99.10;;;;;;5072755;28;20102;-83
2022/09/07 07:41:19;;;;;;;7.13;5.47;;;22.90;98.50;;;;;;5071551;28;20029;-82
2022/09/07 07:43:45;;;;;;;7.53;5.28;;;23.10;98.20;;;;;;5075751;28;20032;-84
2022/09/07 07:46:15;;;;;;;8.90;6.25;;;23.20;98.40;;;;;;5072221;28;20059;-83
2022/09/07 07:48:41;;;;;;;6.07;5.47;;;23.30;98.50;;;;;;5072762;28;20043;-83
2022/09/07 07:51:12;;;;;;;6.18;4.82;;;23.50;98.30;;;;;;5073553;28;20461;-84
2022/09/07 07:53:38;;;;;;;4.97;4.47;;;23.70;98.10;;;;;;5079409;28;20480;-83
2022/09/07 07:56:05;;;;;;;6.75;4.32;;;23.90;97.30;;;;;;5076199;28;20024;-83
2022/09/07 07:58:32;;;;;;;4.65;4.10;;;24.10;96.30;;;;;;5077251;28;20021;-85
2022/09/07 08:01:10;;;;;;;8.38;4.38;;;24.20;96.80;;;;;;5076142;28;20224;-84
2022/09/07 08:03:40;;;;;;;4.75;3.63;;;24.30;97.30;;;;;;5076217;28;20058;-84
2022/09/07 08:06:15;;;;;;;3.95;3.55;;;24.50;96.40;;;;;;5077349;28;20033;-83
2022/09/07 08:08:41;;;;;;;4.05;3.65;;;24.70;96.70;;;;;;5074621;28;20025;-82
2022/09/07 08:11:09;;;;;;;5.80;3.55;;;24.90;96.10;;;;;;5075874;28;20059;-83
2022/09/07 08:13:36;;;;;;;7.30;3.72;;;25.00;96.00;;;;;;5072798;28;20032;-84
2022/09/07 08:16:04;;;;;;;7.00;3.22;;;25.10;95.40;;;;;;5074110;28;20287;-83
2022/09/07 08:18:29;;;;;;;4.60;2.70;;;25.10;95.30;;;;;;5073197;28;20396;-83
2022/09/07 08:21:00;;;;;;;5.28;3.20;;;25.20;95.00;;;;;;5074457;28;20037;-84
2022/09/07 08:23:26;;;;;;;4.03;3.15;;;25.30;94.20;;;;;;5073921;28;20056;-83
2022/09/07 08:25:53;;;;;;;4.38;3.00;;;25.40;94.50;;;;;;5073249;28;20091;-85
2022/09/07 08:28:20;;;;;;;4.38;2.58;;;25.40;93.80;;;;;;5072634;28;20023;-83
2022/09/07 08:30:46;;;;;;;5.15;3.03;;;25.50;93.30;;;;;;5076073;28;20037;-83
2022/09/07 08:33:12;;;;;;;4.65;3.03;;;25.40;93.60;;;;;;5073429;28;20039;-83
2022/09/07 08:35:38;;;;;;;4.38;2.85;;;25.40;93.80;;;;;;5073280;28;20028;-83
2022/09/07 08:38:03;;;;;;;2.60;2.22;;;25.40;93.10;;;;;;5073159;28;20017;-83
2022/09/07 08:40:31;;;;;;;3.85;3.03;;;25.40;93.60;;;;;;5074329;28;20479;-84
2022/09/07 08:43:06;;;;;;;6.28;3.33;;;25.40;93.60;;;;;;5073509;28;20033;-83
2022/09/07 08:45:41;;;;;;;4.70;2.67;;;25.30;93.60;;;;;;5073523;28;20019;-84
2022/09/07 08:48:12;;;;;;;4.25;2.83;;;25.40;93.40;;;;;;5075817;28;20016;-83
2022/09/07 08:50:46;;;;;;;5.95;2.80;;;25.40;94.30;;;;;;5080413;28;20024;-82
2022/09/07 08:53:14;;;;;;;3.80;2.40;;;25.40;94.00;;;;;;5084006;28;20481;-82
2022/09/07 08:55:51;;;;;;;7.60;2.70;;;25.50;93.20;;;;;;5086501;28;20046;-83
2022/09/07 08:58:23;;;;;;;3.60;2.65;;;25.60;93.70;;;;;;5082440;28;20108;-85
2022/09/07 09:00:49;;;;;;;7.95;2.53;;;25.70;93.60;;;;;;5077992;28;20364;-85
2022/09/07 09:03:26;;;;;;;4.32;2.88;;;25.70;93.30;;;;;;5080605;28;20028;-83
2022/09/07 09:05:58;;;;;;;5.45;3.28;;;25.70;93.60;;;;;;5089337;28;20019;-85
2022/09/07 09:08:39;;;;;;;5.28;2.67;;;25.80;94.10;;;;;;5098465;28;20431;-84
2022/09/07 09:11:19;;;;;;;3.13;2.83;;;25.80;93.30;;;;;;5090542;28;20074;-85
2022/09/07 09:14:00;;;;;;;3.95;3.08;;;25.80;93.30;;;;;;5080118;28;20028;-84
2022/09/07 09:16:40;;;;;;;8.43;3.00;;;25.90;93.20;;;;;;5077988;28;20106;-84
2022/09/07 09:19:31;;;;;;;3.90;2.80;;;25.90;93.40;;;;;;5074517;28;20028;-85
2022/09/07 09:22:16;;;;;;;6.35;2.80;;;25.90;93.10;;;;;;5073595;28;20108;-83
2022/09/07 09:25:06;;;;;;;6.18;3.00;;;25.90;92.90;;;;;;5068348;28;20119;-86
2022/09/07 09:27:32;;;;;;;4.40;3.08;;;26.00;92.90;;;;;;5065000;28;20044;-84
2022/09/07 09:29:57;;;;;;;4.88;2.78;;;26.10;92.90;;;;;;5073279;28;20174;-84
2022/09/07 09:32:40;;;;;;;3.60;2.90;;;26.20;93.40;;;;;;5073060;28;20035;-85
2022/09/07 09:35:13;;;;;;;;;;;26.30;92.80;;;;;;5071918;28;20174;-84
2022/09/07 09:37:40;;;;;;;3.83;2.80;;;26.40;92.20;;;;;;5071760;28;19911;-84
2022/09/07 09:40:17;;;;;;;5.32;2.50;;;26.40;93.00;;;;;;5072156;28;20028;-84
2022/09/07 09:42:44;;;;;;;6.60;2.83;;;26.40;92.50;;;;;;5054947;28;20025;-85
2022/09/07 09:45:15;;;;;;;3.72;2.90;;;26.50;92.10;;;;;;5056392;28;20024;-85
2022/09/07 09:47:49;;;;;;;4.95;2.80;;;26.60;91.50;;;;;;5056746;28;20021;-84
2022/09/07 09:50:21;;;;;;;4.45;3.05;;;26.60;91.70;;;;;;5058094;28;20373;-86
2022/09/07 09:52:47;;;;;;;4.05;2.90;;;26.60;91.90;;;;;;5063459;28;20025;-84
2022/09/07 09:55:24;;;;;;;3.30;3.00;;;26.70;92.00;;;;;;5075666;28;20469;-88
2022/09/07 09:58:01;;;;;;;3.42;2.72;;;26.80;92.40;;;;;;5073184;28;20104;-84
2022/09/07 10:00:32;;;;;;;7.85;3.58;;;27.00;91.40;;;;;;5072448;28;20039;-84
2022/09/07 10:03:01;;;;;;;4.70;3.55;;;27.20;91.70;;;;;;5071681;28;20035;-84
2022/09/07 10:05:34;;;;;;;6.28;3.20;;;27.40;91.20;;;;;;5072546;28;20024;-86
2022/09/07 10:08:00;;;;;;;5.70;3.20;;;27.60;91.10;;;;;;5072232;28;20021;-85
2022/09/07 10:10:28;;;;;;;4.05;3.30;;;27.60;90.90;;;;;;5072085;28;20056;-84
2022/09/07 10:12:55;;;;;;;7.05;3.00;;;27.60;90.90;;;;;;5070186;28;20021;-83
2022/09/07 10:15:30;;;;;;;4.07;3.30;;;27.60;90.60;;;;;;5071628;28;20031;-86
2022/09/07 10:17:57;;;;;;;5.05;3.33;;;27.60;91.10;;;;;;5073399;28;20021;-85
2022/09/07 10:20:30;;;;;;;4.40;2.97;;;27.60;91.30;;;;;;5071911;28;20020;-87
2022/09/07 10:22:58;;;;;;;6.13;3.30;;;27.60;90.90;;;;;;5071772;28;20029;-84
2022/09/07 10:25:31;;;;;;;6.72;3.42;;;27.60;90.90;;;;;;5072625;28;20028;-84
2022/09/07 10:28:10;;;;;;;6.13;2.85;;;27.60;90.50;;;;;;5070428;28;20426;-82
2022/09/07 10:31:02;;;;;;;5.18;3.42;;;27.60;90.60;;;;;;5069726;28;20466;-81
2022/09/07 10:34:07;;;;;;;3.33;2.97;;;27.50;90.80;;;;;;5071840;28;20016;-83
2022/09/07 10:36:53;;;;;;;9.63;3.35;;;27.40;91.20;;;;;;5071255;28;20074;-82
2022/09/07 10:39:25;;;;;;;5.47;3.15;;;27.40;90.90;;;;;;5071491;28;20615;-84
2022/09/07 10:42:03;;;;;;;3.72;2.42;;;27.40;90.80;;;;;;5071567;28;20020;-84
2022/09/07 10:44:40;;;;;;;6.45;4.05;;;27.40;91.00;;;;;;5071976;28;20035;-84
2022/09/07 10:47:24;;;;;;;6.15;3.15;;;27.50;91.00;;;;;;5072041;28;20024;-84
2022/09/07 10:49:56;;;;;;;7.10;3.67;;;27.60;90.70;;;;;;5071271;28;20051;-84
2022/09/07 10:52:27;;;;;;;;;;;27.70;90.90;;;;;;5087485;28;20025;-84
2022/09/07 10:55:00;;;;;;;7.22;3.78;;;27.80;90.90;;;;;;5072137;28;19999;-86
2022/09/07 10:57:35;;;;;;;5.68;3.08;;;28.00;90.50;;;;;;5071572;28;20534;-84
2022/09/07 11:00:13;;;;;;;7.35;2.97;;;28.10;91.40;;;;;;5071409;28;20365;-89
2022/09/07 11:03:14;;;;;;;8.68;2.92;;;28.30;91.20;;;;;;5070447;28;20066;-85
2022/09/07 11:05:58;;;;;;;5.03;3.15;;;28.60;90.70;;;;;;5070493;28;20031;-84
2022/09/07 11:08:38;;;;;;;6.47;3.50;;;28.80;90.80;;;;;;5071207;28;20472;-84
2022/09/07 11:11:13;;;;;;;7.03;2.72;;;29.00;90.30;;;;;;5071123;28;20032;-84
2022/09/07 11:13:42;;;;;;;7.50;2.92;;;29.10;88.90;;;;;;5072729;28;20031;-83
2022/09/07 11:16:15;;;;;;;5.65;3.30;;;29.30;90.30;;;;;;5071835;28;20021;-83
2022/09/07 11:18:54;;;;;;;9.10;3.28;;;29.40;88.40;;;;;;5070917;28;20502;-83
2022/09/07 11:21:24;;;;;;;3.42;2.72;;;29.60;87.30;;;;;;5071077;28;20523;-82
2022/09/07 11:24:08;;;;;;;4.53;3.38;;;29.60;87.80;;;;;;5071515;28;20033;-84
2022/09/07 11:26:47;;;;;;;11.23;3.10;;;29.70;86.80;;;;;;5074743;28;20492;-84
2022/09/07 11:29:38;;;;;;;3.75;2.70;;;29.80;87.60;;;;;;5075085;28;20033;-85
2022/09/07 11:32:25;;;;;;;5.32;3.33;;;29.80;87.60;;;;;;5075831;28;20103;-84
2022/09/07 11:35:05;;;;;;;5.05;2.88;;;29.80;86.10;;;;;;5074740;28;20032;-83
2022/09/07 11:37:58;;;;;;;6.93;3.35;;;29.70;87.50;;;;;;5074870;28;20024;-82
2022/09/07 11:40:32;;;;;;;7.22;2.83;;;29.90;87.00;;;;;;5075629;28;20021;-81
2022/09/07 11:43:13;;;;;;;5.07;3.35;;;30.10;85.50;;;;;;5077565;28;20028;-83
2022/09/07 11:45:44;;;;;;;7.87;3.10;;;30.30;85.90;;;;;;5072456;28;20028;-86
2022/09/07 11:48:17;;;;;;;8.52;3.22;;;30.20;85.00;;;;;;5076350;28;20012;-82
2022/09/07 11:50:50;;;;;;;5.63;3.08;;;30.00;85.00;;;;;;5075562;28;20024;-83
2022/09/07 11:53:19;;;;;;;6.10;3.28;;;30.10;86.30;;;;;;5076076;28;20059;-83
2022/09/07 11:55:49;;;;;;;4.20;2.85;;;30.10;87.30;;;;;;5075621;28;20059;-82
2022/09/07 11:58:34;;;;;;;5.57;3.00;;;30.20;85.50;;;;;;5075825;28;20050;-82
2022/09/07 12:01:22;;;;;;;7.53;2.58;;;30.30;85.00;;;;;;5074863;28;20769;-82
2022/09/07 12:04:31;;;;;;;7.53;3.00;;;30.50;84.40;;;;;;5073643;28;20074;-83
2022/09/07 12:07:14;;;;;;;6.90;2.65;;;30.60;83.30;;;;;;5075276;28;20165;-85
2022/09/07 12:10:10;;;;;;;7.70;3.33;;;30.70;84.20;;;;;;5075394;28;20410;-82
2022/09/07 12:12:40;;;;;;;7.47;3.20;;;30.70;83.30;;;;;;5074240;28;20158;-83
2022/09/07 12:15:39;;;;;;;5.10;2.63;;;30.70;83.40;;;;;;5074433;28;20044;-82
2022/09/07 12:18:30;;;;;;;9.85;3.08;;;30.60;84.50;;;;;;5074481;28;20469;-83
2022/09/07 12:20:55;;;;;;;7.57;3.10;;;30.70;83.70;;;;;;5074373;28;20511;-82
2022/09/07 12:23:33;;;;;;;5.35;2.47;;;30.80;83.70;;;;;;5073305;28;20017;-80
2022/09/07 12:26:33;;;;;;;6.45;2.80;;;31.00;82.40;;;;;;5075031;28;20016;-84
2022/09/07 12:28:58;;;;;;;6.40;3.22;;;31.10;82.30;;;;;;5075379;28;20013;-82
2022/09/07 12:31:43;;;;;;;4.78;2.83;;;31.20;82.80;;;;;;5074285;28;20157;-82
2022/09/07 12:34:30;;;;;;;10.68;2.80;;;31.30;81.50;;;;;;5075720;28;20050;-85
2022/09/07 12:37:25;;;;;;;8.57;2.10;;;31.40;83.10;;;;;;5075541;28;20079;-82
2022/09/07 12:40:26;;;;;;;7.00;2.15;;;31.40;79.00;;;;;;5070309;28;20542;-81
2022/09/07 12:43:14;;;;;;;5.50;2.35;;;31.40;79.30;;;;;;5090626;28;20013;-84
2022/09/07 12:45:39;;;;;;;5.60;2.50;;;31.40;79.80;;;;;;5097099;28;20012;-82
2022/09/07 12:48:14;;;;;;;3.05;2.33;;;31.40;78.00;;;;;;5083737;28;20032;-80
2022/09/07 12:51:09;;;;;;;4.70;2.67;;;31.30;77.30;;;;;;5077124;28;20023;-82
2022/09/07 12:53:54;;;;;;;3.97;2.65;;;31.30;78.40;;;;;;5075896;28;20048;-83
2022/09/07 12:56:33;;;;;;;3.42;2.10;;;31.30;79.20;;;;;;5071856;28;20020;-83
2022/09/07 12:59:26;;;;;;;5.55;1.90;;;31.30;78.30;;;;;;5072676;28;20035;-84
2022/09/07 13:02:11;;;;;;;5.13;1.90;;;31.20;78.10;;;;;;5065213;28;20043;-84